Terminal Aerodrome Forecast
Issued by NWS

Home | Current Version | Previous Version | Text Only | Print | Product List | Glossary On
Versions: 1 2 3 4 5 6 7 8 9 10 11 12 13 14 15 16 17 18 19 20 21 22 23 24 25 26 27 28 29 30 31 32 33 34 35
000
FTUS44 KHGX 191445 AAA
TAFIAH
TAF AMD
KIAH 191445Z 1915/2018 14011KT 3SM BR OVC007
     FM191700 13012G20KT P6SM FEW017 BKN024 OVC250
      TEMPO 1917/1918 OVC015
     FM200000 14012KT P6SM BKN012
     FM200900 16007KT P6SM -RA OVC010
     FM201200 13005KT 6SM -TSRA BR SCT007 BKN050CB=

USA.gov is the U.S. government's official web portal to all federal, state and local government web resources and services.